Weather History for Westminster, MD

Change the Weather History Date:

Saturday, October 29, 2011

  Actual Average (KTHV) Record (KTHV)
Temperature  
Mean Temperature 36 °F -  
Max Temperature 39 °F 0 °F 73 °F (1999)
Min Temperature 33 °F - 23 °F (2001)
Degree Days  
Heating Degree Days 29    
Moisture  
Dew Point 32 °F    
Average Humidity 88    
Maximum Humidity 93    
Minimum Humidity 81    
Precipitation  
Precipitation 0.74 in - - ()
Sea Level Pressure  
Sea Level Pressure 30.03 in    
Wind  
Wind Speed 7 mph (NNE)    
Max Wind Speed 15 mph    
Max Gust Speed 21 mph    
Visibility 3 miles    
Events Rain , Snow    
Averages and records for this station are not official NWS values.
T = Trace of Precipitation, MM = Missing Value Source: NWS Daily Summary

Daily Weather History Graph

Daily Weather History Graph

Search for Another Location

Airport:

Trip Planner

Search our weather history database for the weather conditions in past years. The results will help you decide how hot, cold, wet, or windy it might be!

Date:

Astronomy

Oct. 29, 2011 Rise Set
Actual Time 7:32 AM EDT 6:10 PM EDT
Civil Twilight 7:05 AM EDT 6:37 PM EDT
Nautical Twilight 6:33 AM EDT 7:09 PM EDT
Astronomical Twilight 6:02 AM EDT 7:40 PM EDT
Moon 10:51 AM EDT (10/29) 8:32 PM EDT (10/29)
Length of Visible Light 11h 32m
Length of Day
10h 37m
Waxing Crescent, 11% of the Moon is Illuminated
Oct 29
Waxing Crescent
Nov 2
First Quarter
Nov 10
Full
Nov 18
Last Quarter
Nov 25
New

Hourly Weather History & Observations

Time (EDT) Temp. Windchill Dew Point Humidity Pressure Visibility Wind Dir Wind Speed Gust Speed Precip Events Conditions
12:10 AM 39.2 °F 35.0 °F 33.8 °F 81% 30.19 in 10.0 mi ENE 5.8 mph - N/A   Drizzle
12:31 AM 39.2 °F 35.0 °F 33.8 °F 81% 30.18 in 10.0 mi ENE 5.8 mph - N/A Rain Light Rain
12:49 AM 39.2 °F 35.9 °F 33.8 °F 81% 30.18 in 10.0 mi ENE 4.6 mph - N/A Rain Rain
1:10 AM 39.2 °F 35.9 °F 35.6 °F 87% 30.17 in 10.0 mi East 4.6 mph - N/A Rain Light Rain
1:28 AM 37.4 °F 32.1 °F 35.6 °F 93% 30.17 in 10.0 mi ENE 6.9 mph - 0.01 in Rain Light Rain
1:49 AM 37.4 °F 32.1 °F 35.6 °F 93% 30.16 in 10.0 mi ENE 6.9 mph - N/A Rain Rain
2:07 AM 37.4 °F 34.9 °F 33.8 °F 87% 30.16 in 10.0 mi NE 3.5 mph - N/A Rain Rain
2:28 AM 37.4 °F 32.1 °F 33.8 °F 87% 30.16 in 7.0 mi NE 6.9 mph - 0.01 in Rain Rain
3:04 AM 37.4 °F 32.8 °F 33.8 °F 87% 30.14 in 7.0 mi NE 5.8 mph - 0.01 in Rain Light Rain
3:25 AM 37.4 °F 32.8 °F 33.8 °F 87% 30.14 in 5.0 mi NE 5.8 mph - 0.02 in Rain Light Rain
3:43 AM 37.4 °F 31.4 °F 33.8 °F 87% 30.13 in 5.0 mi NE 8.1 mph - 0.03 in Rain Light Rain
4:04 AM 35.6 °F 28.6 °F 33.8 °F 93% 30.10 in 4.0 mi NE 9.2 mph - N/A Rain Light Rain
4:22 AM 37.4 °F 30.8 °F 33.8 °F 87% 30.10 in 5.0 mi NE 9.2 mph - 0.01 in Rain Light Rain
4:43 AM 37.4 °F 30.3 °F 33.8 °F 87% 30.09 in 5.0 mi NE 10.4 mph - 0.01 in Rain Light Rain
5:01 AM 37.4 °F 31.4 °F 33.8 °F 87% 30.10 in 5.0 mi NE 8.1 mph - 0.01 in Rain Rain
5:22 AM 35.6 °F 28.6 °F 33.8 °F 93% 30.09 in 4.0 mi NE 9.2 mph - 0.02 in Rain Light Rain
5:58 AM 35.6 °F 29.2 °F 33.8 °F 93% 30.07 in 3.0 mi NE 8.1 mph - 0.02 in Snow Light Snow
6:19 AM 35.6 °F 28.6 °F 33.8 °F 93% 30.06 in 3.0 mi NE 9.2 mph - 0.04 in Snow Light Snow
6:58 AM 33.8 °F 27.7 °F 32.0 °F 93% 30.04 in 3.0 mi ENE 6.9 mph - 0.01 in Snow Light Snow
7:16 AM 33.8 °F 26.4 °F 32.0 °F 93% 30.04 in 2.5 mi NE 9.2 mph - 0.02 in Snow Light Snow
7:37 AM 33.8 °F 25.3 °F 30.2 °F 87% 30.02 in 1.5 mi NE 11.5 mph - 0.06 in Snow Light Snow
7:55 AM 33.8 °F 25.3 °F 30.2 °F 87% 30.00 in 1.2 mi NE 11.5 mph - 0.01 in Snow Light Snow
8:13 AM 33.8 °F 25.8 °F 30.2 °F 87% 29.99 in 1.2 mi NE 10.4 mph 16.1 mph 0.03 in Snow Light Snow
8:52 AM 33.8 °F 27.7 °F 30.2 °F 87% 30.02 in 0.8 mi NNE 6.9 mph - 0.01 in Snow Light Snow
9:13 AM 33.8 °F 24.8 °F 30.2 °F 87% 30.00 in 1.5 mi NE 12.7 mph 17.3 mph 0.04 in Snow Light Snow
9:31 AM 33.8 °F 26.4 °F 30.2 °F 87% 29.98 in 1.5 mi NE 9.2 mph - 0.08 in Snow Light Snow
9:52 AM 33.8 °F 27.7 °F 30.2 °F 87% 29.99 in 2.0 mi NNE 6.9 mph - 0.02 in Snow Light Snow
10:10 AM 33.8 °F 27.7 °F 30.2 °F 87% 29.99 in 2.5 mi NE 6.9 mph - 0.03 in Snow Light Snow
10:28 AM 33.8 °F 27.7 °F 30.2 °F 87% 29.99 in 0.8 mi NNE 6.9 mph - 0.06 in Snow Light Snow
10:49 AM 33.8 °F 25.8 °F 30.2 °F 87% 29.97 in 0.8 mi NE 10.4 mph - N/A Snow Light Snow
11:07 AM 33.8 °F 27.7 °F 30.2 °F 87% 29.96 in 0.5 mi NNE 6.9 mph - 0.03 in Snow Snow
11:28 AM 33.8 °F 25.3 °F 30.2 °F 87% 29.93 in 0.8 mi NE 11.5 mph 17.3 mph 0.06 in Snow Light Snow
11:46 AM 33.8 °F 25.3 °F 30.2 °F 87% 29.91 in 1.0 mi NNE 11.5 mph - N/A Snow Light Snow
12:07 PM 33.8 °F 26.4 °F 30.2 °F 87% 29.91 in 1.8 mi NE 9.2 mph - 0.04 in Snow Light Snow
1:04 PM 33.8 °F 27.0 °F 30.2 °F 87% 29.92 in 2.5 mi North 8.1 mph - 0.01 in Snow Light Snow
1:22 PM 33.8 °F 27.7 °F 30.2 °F 87% 29.94 in 0.8 mi North 6.9 mph - 0.02 in Snow Light Snow
2:01 PM 33.8 °F 27.0 °F 30.2 °F 87% 29.93 in 1.0 mi North 8.1 mph - 0.01 in Snow Light Snow
2:19 PM 33.8 °F 23.9 °F 30.2 °F 87% 29.92 in 0.8 mi North 15.0 mph 20.7 mph 0.05 in Snow Light Snow
2:40 PM 33.8 °F 27.0 °F 30.2 °F 87% 29.95 in 0.8 mi North 8.1 mph 16.1 mph 0.09 in Snow Light Snow
3:19 PM 33.8 °F 25.3 °F 30.2 °F 87% 29.93 in 0.5 mi North 11.5 mph 17.3 mph 0.07 in Snow Light Snow
3:37 PM 33.8 °F 27.0 °F 30.2 °F 87% 29.94 in 0.5 mi North 8.1 mph 16.1 mph 0.10 in Snow Snow
3:58 PM 33.8 °F 26.4 °F 30.2 °F 87% 29.95 in 1.5 mi North 9.2 mph - 0.02 in Snow Light Snow
4:16 PM 33.8 °F 27.0 °F 30.2 °F 87% 29.96 in 1.2 mi North 8.1 mph - 0.04 in Snow Light Snow
4:34 PM 33.8 °F 26.4 °F 30.2 °F 87% 29.96 in 1.5 mi North 9.2 mph - 0.05 in Snow Light Snow
4:55 PM 33.8 °F 27.0 °F 30.2 °F 87% 29.96 in 2.0 mi North 8.1 mph - N/A Snow Light Snow
5:13 PM 33.8 °F 27.7 °F 30.2 °F 87% 29.97 in 2.5 mi North 6.9 mph - 0.01 in Snow Light Snow
5:34 PM 33.8 °F 28.6 °F 30.2 °F 87% 29.98 in 1.2 mi North 5.8 mph - 0.02 in Snow Light Snow
5:52 PM 33.8 °F 29.6 °F 30.2 °F 87% 29.99 in 1.0 mi North 4.6 mph - N/A Snow Light Snow
6:13 PM 33.8 °F 28.6 °F 30.2 °F 87% 30.00 in 0.8 mi North 5.8 mph - 0.01 in Snow Light Snow
6:31 PM 33.8 °F 30.8 °F 30.2 °F 87% 30.01 in 1.8 mi NNW 3.5 mph - 0.01 in Snow Light Snow
6:49 PM 33.8 °F 28.6 °F 30.2 °F 87% 30.01 in 3.0 mi NNW 5.8 mph - N/A Snow Light Snow
7:46 PM 33.8 °F 29.6 °F 30.2 °F 87% 30.02 in 2.5 mi NNW 4.6 mph - N/A Snow Light Snow
8:07 PM 33.8 °F 28.6 °F 30.2 °F 87% 30.03 in 4.0 mi NNW 5.8 mph - N/A Snow Light Snow
8:28 PM 33.8 °F 30.8 °F 30.2 °F 87% 30.03 in 7.0 mi NNW 3.5 mph - N/A Snow Light Snow
8:46 PM 33.8 °F 29.6 °F 30.2 °F 87% 30.04 in 10.0 mi NNW 4.6 mph - N/A   Overcast
9:04 PM 33.8 °F 29.6 °F 30.2 °F 87% 30.04 in 10.0 mi NNW 4.6 mph - N/A   Overcast
9:25 PM 33.8 °F 28.6 °F 30.2 °F 87% 30.04 in 10.0 mi NNW 5.8 mph - N/A   Overcast
9:43 PM 33.8 °F 29.6 °F 30.2 °F 87% 30.04 in 10.0 mi NW 4.6 mph - N/A   Overcast
10:04 PM 33.8 °F 29.6 °F 30.2 °F 87% 30.05 in 10.0 mi NW 4.6 mph - N/A   Overcast
10:22 PM 33.8 °F 30.8 °F 30.2 °F 87% 30.05 in 10.0 mi NW 3.5 mph - N/A   Scattered Clouds
10:43 PM 32.0 °F 28.7 °F 30.2 °F 93% 30.04 in 10.0 mi NW 3.5 mph - N/A   Clear
11:01 PM 32.0 °F - 30.2 °F 93% 30.04 in 10.0 mi Calm Calm - N/A   Clear
11:22 PM 32.0 °F - 30.2 °F 93% 30.04 in 10.0 mi Calm Calm - N/A   Clear
11:40 PM 32.0 °F - 30.2 °F 93% 30.03 in 10.0 mi Calm Calm - N/A   Clear
11:55 PM 32.0 °F - 30.2 °F 93% 30.04 in 10.0 mi Calm Calm - N/A   Clear